My Profile
  1. Member Settings
  2. My Devices
  3. Sign Out
        More Settings
      Elev 568 ft, 41.489 °N 82.936 °W

      Portage Township, OH

      Summary

      Temperature (°F)MaxAverageMin
      Max Temperature7754.4128
      Avg Temperature66.6444.0923.92
      Min Temperature6136.0618
      Precipitation (in)MaxAverageMinSum
      Precipitation1.080.1203.8
      Dew Point (°F)MaxAverageMin
      Dew Point58.635.0912.74
      Wind (mph)MaxAverageMin
      Wind402112
      Gust Wind5825.6912
      Sea Level Pressure (in)MaxAverageMin
      Sea Level Pressure29.8629.3828.74

      Daily Observations

      DateTemp High/LowDew Pt High/LowHumidityWindMax WindWind GustPressurePrecip.Condition
      3/1/2026 28 °F / 23 °F 23 °F / 10 °F 66 % 18 mph - 29.78 in 0 in
      3/2/2026 32 °F / 21 °F 25 °F / 10 °F 71 % 18 mph - 29.82 in 0 in
      3/3/2026 37 °F / 27 °F 36 °F / 23 °F 95 % 8 mph - 29.54 in 0 in
      3/4/2026 37 °F / 34 °F 37 °F / 32 °F 99 % 12 mph - 29.55 in 0.08 in
      3/5/2026 39 °F / 34 °F 39 °F / 34 °F 100 % 13 mph - 29.4 in 0.35 in
      3/6/2026 70 °F / 36 °F 63 °F / 36 °F 93 % 14 mph - 29.43 in 0.05 in
      3/7/2026 66 °F / 46 °F 63 °F / 43 °F 86 % 24 mph - 29.17 in 0.35 in
      3/8/2026 48 °F / 46 °F 43 °F / 41 °F 80 % 20 mph - 29.24 in 0 in
      3/9/2026 70 °F / 46 °F 48 °F / 34 °F 54 % 20 mph - 29.23 in 0 in
      3/10/2026 73 °F / 46 °F 63 °F / 45 °F 80 % 16 mph - 29.24 in 0 in
      3/11/2026 66 °F / 36 °F 64 °F / 28 °F 91 % 32 mph - 29.04 in 1.09 in
      3/12/2026 41 °F / 32 °F 28 °F / 19 °F 62 % 22 mph - 29.43 in 0 in
      3/13/2026 55 °F / 34 °F 34 °F / 23 °F 56 % 40 mph - 29.07 in 0 in
      3/14/2026 37 °F / 30 °F 27 °F / 19 °F 63 % 26 mph - 29.5 in 0 in
      3/15/2026 72 °F / 36 °F 46 °F / 27 °F 56 % 29 mph - 29.09 in 0 in
      3/16/2026 64 °F / 25 °F 54 °F / 12 °F 71 % 39 mph - 28.78 in 0.13 in
      3/17/2026 27 °F / 19 °F 18 °F / 9 °F 64 % 26 mph - 29.37 in 0 in
      3/18/2026 36 °F / 18 °F 27 °F / 10 °F 64 % 18 mph - 29.55 in 0.02 in
      3/19/2026 50 °F / 34 °F 37 °F / 27 °F 75 % 12 mph - 29.45 in 0 in
      3/20/2026 73 °F / 37 °F 48 °F / 34 °F 66 % 18 mph - 29.16 in 0 in
      3/21/2026 52 °F / 34 °F 45 °F / 32 °F 89 % 13 mph - 29.29 in 0 in
      3/22/2026 63 °F / 36 °F 50 °F / 32 °F 73 % 23 mph - 29.09 in 0 in
      3/23/2026 39 °F / 28 °F 32 °F / 23 °F 81 % 21 mph - 29.57 in 0 in
      3/24/2026 46 °F / 25 °F 34 °F / 21 °F 74 % 15 mph - 29.74 in 0 in
      3/25/2026 63 °F / 36 °F 39 °F / 23 °F 53 % 15 mph - 29.46 in 0 in
      3/26/2026 77 °F / 43 °F 59 °F / 39 °F 71 % 22 mph - 29.16 in 1.43 in
      3/27/2026 37 °F / 28 °F 37 °F / 21 °F 76 % 26 mph - 29.6 in 0.03 in
      3/28/2026 43 °F / 30 °F 28 °F / 14 °F 56 % 17 mph - 29.87 in 0 in
      3/29/2026 59 °F / 37 °F 39 °F / 25 °F 51 % 15 mph - 29.63 in 0 in
      3/30/2026 70 °F / 50 °F 55 °F / 37 °F 62 % 18 mph - 29.35 in 0 in
      3/31/2026 77 °F / 59 °F 61 °F / 55 °F 74 % 25 mph - 29.23 in 0.27 in
      essentialaccessibility.com
      We recognize our responsibility to use data and technology for good. We may use or share your data with our data vendors. Take control of your data.
      Glossary